sensor_id;sensor_type;location;lat;lon;timestamp;pressure;altitude;pressure_sealevel;temperature;humidity
48882;BME280;57063;51.406;-2.402;2023-03-15T02:30:17;100507.09;;;-0.48;100.00
48882;BME280;57063;51.406;-2.402;2023-03-15T02:33:40;100463.44;;;-0.74;100.00
48882;BME280;57063;51.406;-2.402;2023-03-15T02:42:59;100464.22;;;-0.69;100.00
48882;BME280;57063;51.406;-2.402;2023-03-15T02:46:02;100501.00;;;-0.33;100.00
48882;BME280;57063;51.406;-2.402;2023-03-15T02:52:36;100478.47;;;-0.57;100.00
48882;BME280;57063;51.406;-2.402;2023-03-15T02:56:15;100466.53;;;-0.49;100.00
48882;BME280;57063;51.406;-2.402;2023-03-15T02:59:37;100456.53;;;-0.60;100.00
48882;BME280;57063;51.406;-2.402;2023-03-15T03:08:42;100505.13;;;-0.24;100.00
48882;BME280;57063;51.406;-2.402;2023-03-15T03:15:31;100455.84;;;-0.74;100.00
48882;BME280;57063;51.406;-2.402;2023-03-15T03:18:41;100512.13;;;-0.45;100.00
48882;BME280;57063;51.406;-2.402;2023-03-15T08:02:09;100572.03;;;4.34;100.00
48882;BME280;57063;51.406;-2.402;2023-03-15T08:04:38;100524.84;;;4.17;100.00
48882;BME280;57063;51.406;-2.402;2023-03-15T08:15:28;100538.84;;;4.60;100.00
48882;BME280;57063;51.406;-2.402;2023-03-15T08:17:53;100547.91;;;4.70;100.00
48882;BME280;57063;51.406;-2.402;2023-03-15T08:20:40;100544.66;;;4.65;97.72
48882;BME280;57063;51.406;-2.402;2023-03-15T08:23:20;100535.50;;;4.58;98.90
48882;BME280;57063;51.406;-2.402;2023-03-15T08:26:26;100548.44;;;4.80;100.00
48882;BME280;57063;51.406;-2.402;2023-03-15T08:28:52;100544.88;;;4.86;100.00
48882;BME280;57063;51.406;-2.402;2023-03-15T08:31:20;100549.91;;;4.89;100.00
48882;BME280;57063;51.406;-2.402;2023-03-15T08:33:49;100570.84;;;5.00;100.00
48882;BME280;57063;51.406;-2.402;2023-03-15T08:37:04;100548.03;;;4.94;100.00
48882;BME280;57063;51.406;-2.402;2023-03-15T08:39:57;100546.38;;;4.93;99.79
48882;BME280;57063;51.406;-2.402;2023-03-15T08:42:56;100556.72;;;5.15;100.00
48882;BME280;57063;51.406;-2.402;2023-03-15T08:45:52;100538.84;;;5.13;99.22
48882;BME280;57063;51.406;-2.402;2023-03-15T08:49:05;100534.84;;;5.31;100.00
48882;BME280;57063;51.406;-2.402;2023-03-15T08:51:33;100541.38;;;5.40;98.88
48882;BME280;57063;51.406;-2.402;2023-03-15T08:54:16;100534.44;;;5.67;100.00
48882;BME280;57063;51.406;-2.402;2023-03-15T08:57:13;100548.59;;;5.77;96.70
48882;BME280;57063;51.406;-2.402;2023-03-15T09:00:11;100544.63;;;5.92;97.93
48882;BME280;57063;51.406;-2.402;2023-03-15T10:44:51;100520.81;;;8.74;68.95
48882;BME280;57063;51.406;-2.402;2023-03-15T14:14:50;100362.03;;;8.41;92.44
48882;BME280;57063;51.406;-2.402;2023-03-15T14:17:34;100358.16;;;8.15;94.15
48882;BME280;57063;51.406;-2.402;2023-03-15T14:20:14;100318.13;;;7.75;95.05
48882;BME280;57063;51.406;-2.402;2023-03-15T14:22:43;100311.00;;;7.62;93.78
48882;BME280;57063;51.406;-2.402;2023-03-15T14:25:21;100317.16;;;7.58;96.03
48882;BME280;57063;51.406;-2.402;2023-03-15T14:27:47;100305.00;;;7.44;98.76
48882;BME280;57063;51.406;-2.402;2023-03-15T14:30:32;100295.28;;;7.51;99.58
48882;BME280;57063;51.406;-2.402;2023-03-15T14:33:49;100336.41;;;7.68;99.67
48882;BME280;57063;51.406;-2.402;2023-03-15T14:36:48;100296.81;;;8.60;88.76
48882;BME280;57063;51.406;-2.402;2023-03-15T14:39:28;100319.53;;;8.51;89.65
48882;BME280;57063;51.406;-2.402;2023-03-15T14:42:17;100296.28;;;8.35;90.84
48882;BME280;57063;51.406;-2.402;2023-03-15T14:44:45;100279.75;;;8.06;91.86
48882;BME280;57063;51.406;-2.402;2023-03-15T14:47:23;100285.72;;;7.89;90.32
48882;BME280;57063;51.406;-2.402;2023-03-15T14:49:51;100272.66;;;7.94;94.14
48882;BME280;57063;51.406;-2.402;2023-03-15T14:52:17;100293.97;;;8.13;94.74
48882;BME280;57063;51.406;-2.402;2023-03-15T14:54:48;100287.00;;;8.50;98.34
48882;BME280;57063;51.406;-2.402;2023-03-15T14:57:20;100267.94;;;7.85;94.76
48882;BME280;57063;51.406;-2.402;2023-03-15T14:59:48;100269.00;;;7.63;94.14
48882;BME280;57063;51.406;-2.402;2023-03-15T15:02:21;100271.28;;;8.04;96.59
48882;BME280;57063;51.406;-2.402;2023-03-15T15:04:55;100270.53;;;8.20;94.07
48882;BME280;57063;51.406;-2.402;2023-03-15T15:07:23;100237.88;;;7.87;92.03
48882;BME280;57063;51.406;-2.402;2023-03-15T15:09:52;100239.97;;;8.13;91.67
48882;BME280;57063;51.406;-2.402;2023-03-15T15:12:38;100258.97;;;8.62;90.26
48882;BME280;57063;51.406;-2.402;2023-03-15T15:15:26;100223.16;;;8.24;89.62
48882;BME280;57063;51.406;-2.402;2023-03-15T15:17:54;100220.59;;;8.41;87.58
48882;BME280;57063;51.406;-2.402;2023-03-15T15:20:32;100217.81;;;8.62;85.75
48882;BME280;57063;51.406;-2.402;2023-03-15T15:22:58;100228.88;;;8.79;87.85
48882;BME280;57063;51.406;-2.402;2023-03-15T15:25:38;100214.84;;;8.53;86.45
48882;BME280;57063;51.406;-2.402;2023-03-15T15:28:08;100190.03;;;8.35;87.55
48882;BME280;57063;51.406;-2.402;2023-03-15T15:30:40;100187.19;;;8.24;88.67
48882;BME280;57063;51.406;-2.402;2023-03-15T15:33:21;100199.13;;;8.42;91.32
48882;BME280;57063;51.406;-2.402;2023-03-15T15:36:12;100165.81;;;8.06;92.01
48882;BME280;57063;51.406;-2.402;2023-03-15T15:39:04;100175.44;;;7.85;95.38
48882;BME280;57063;51.406;-2.402;2023-03-15T15:41:59;100167.16;;;7.62;100.00
48882;BME280;57063;51.406;-2.402;2023-03-15T15:44:28;100177.28;;;7.65;100.00
48882;BME280;57063;51.406;-2.402;2023-03-15T15:46:53;100200.78;;;7.75;100.00
48882;BME280;57063;51.406;-2.402;2023-03-15T15:49:19;100181.69;;;7.63;100.00
48882;BME280;57063;51.406;-2.402;2023-03-15T15:51:46;100175.25;;;7.55;100.00
48882;BME280;57063;51.406;-2.402;2023-03-15T15:54:18;100170.66;;;7.44;100.00
48882;BME280;57063;51.406;-2.402;2023-03-15T15:56:50;100164.25;;;8.03;100.00
48882;BME280;57063;51.406;-2.402;2023-03-15T15:59:17;100165.72;;;7.74;100.00
48882;BME280;57063;51.406;-2.402;2023-03-15T16:01:44;100154.41;;;7.07;100.00
48882;BME280;57063;51.406;-2.402;2023-03-15T16:04:09;100180.81;;;6.92;100.00
48882;BME280;57063;51.406;-2.402;2023-03-15T16:06:36;100173.00;;;6.76;100.00
48882;BME280;57063;51.406;-2.402;2023-03-15T16:09:04;100157.53;;;6.77;100.00
48882;BME280;57063;51.406;-2.402;2023-03-15T16:11:30;100142.78;;;6.63;100.00
48882;BME280;57063;51.406;-2.402;2023-03-15T16:13:56;100170.50;;;6.74;100.00
48882;BME280;57063;51.406;-2.402;2023-03-15T16:16:22;100140.03;;;6.49;100.00
48882;BME280;57063;51.406;-2.402;2023-03-15T16:18:48;100135.78;;;6.29;100.00
48882;BME280;57063;51.406;-2.402;2023-03-15T16:21:22;100155.53;;;6.27;100.00
48882;BME280;57063;51.406;-2.402;2023-03-15T16:23:55;100139.00;;;6.14;100.00
48882;BME280;57063;51.406;-2.402;2023-03-15T16:26:22;100141.22;;;6.21;100.00
48882;BME280;57063;51.406;-2.402;2023-03-15T16:28:48;100158.28;;;6.22;100.00
48882;BME280;57063;51.406;-2.402;2023-03-15T16:31:17;100134.50;;;6.19;100.00
48882;BME280;57063;51.406;-2.402;2023-03-15T16:33:44;100154.56;;;6.30;100.00
48882;BME280;57063;51.406;-2.402;2023-03-15T16:36:17;100144.06;;;6.15;100.00
48882;BME280;57063;51.406;-2.402;2023-03-15T16:38:43;100134.41;;;6.22;100.00
48882;BME280;57063;51.406;-2.402;2023-03-15T16:41:14;100124.78;;;6.27;100.00
48882;BME280;57063;51.406;-2.402;2023-03-15T16:54:40;100104.91;;;5.93;100.00
48882;BME280;57063;51.406;-2.402;2023-03-15T16:57:39;100092.16;;;5.91;100.00
48882;BME280;57063;51.406;-2.402;2023-03-15T17:02:50;100097.78;;;5.99;100.00
48882;BME280;57063;51.406;-2.402;2023-03-15T17:05:36;100093.88;;;5.91;100.00
48882;BME280;57063;51.406;-2.402;2023-03-15T17:08:15;100096.22;;;5.76;100.00
48882;BME280;57063;51.406;-2.402;2023-03-15T17:11:00;100120.72;;;5.82;100.00
48882;BME280;57063;51.406;-2.402;2023-03-15T17:21:25;100066.41;;;5.55;100.00
48882;BME280;57063;51.406;-2.402;2023-03-15T17:23:57;100073.69;;;5.64;100.00
48882;BME280;57063;51.406;-2.402;2023-03-15T17:26:23;100069.69;;;5.58;100.00
48882;BME280;57063;51.406;-2.402;2023-03-15T17:28:52;100075.47;;;5.62;100.00
48882;BME280;57063;51.406;-2.402;2023-03-15T17:31:20;100062.72;;;5.61;100.00
48882;BME280;57063;51.406;-2.402;2023-03-15T17:34:03;100065.19;;;5.64;100.00
48882;BME280;57063;51.406;-2.402;2023-03-15T17:36:33;100049.06;;;5.62;100.00
48882;BME280;57063;51.406;-2.402;2023-03-15T17:39:18;100049.56;;;5.89;100.00
48882;BME280;57063;51.406;-2.402;2023-03-15T17:42:19;100047.38;;;5.61;100.00
48882;BME280;57063;51.406;-2.402;2023-03-15T17:47:23;100035.06;;;5.50;100.00
48882;BME280;57063;51.406;-2.402;2023-03-15T17:49:59;100039.91;;;5.56;100.00
48882;BME280;57063;51.406;-2.402;2023-03-15T17:53:09;100038.28;;;5.53;100.00
48882;BME280;57063;51.406;-2.402;2023-03-15T17:56:25;100033.13;;;5.55;100.00
48882;BME280;57063;51.406;-2.402;2023-03-15T18:01:30;100042.41;;;5.57;100.00
48882;BME280;57063;51.406;-2.402;2023-03-15T18:07:31;100073.91;;;5.99;100.00
48882;BME280;57063;51.406;-2.402;2023-03-15T18:21:15;100078.56;;;6.10;100.00
48882;BME280;57063;51.406;-2.402;2023-03-15T18:24:10;100067.81;;;6.02;100.00
48882;BME280;57063;51.406;-2.402;2023-03-15T18:27:04;100052.53;;;6.00;100.00
48882;BME280;57063;51.406;-2.402;2023-03-15T18:29:32;100065.25;;;6.02;100.00
48882;BME280;57063;51.406;-2.402;2023-03-15T18:31:57;100066.16;;;13.38;82.87
48882;BME280;57063;51.406;-2.402;2023-03-15T18:34:23;100076.34;;;6.76;100.00
48882;BME280;57063;51.406;-2.402;2023-03-15T18:36:49;100062.97;;;6.33;100.00
48882;BME280;57063;51.406;-2.402;2023-03-15T18:39:22;100060.34;;;6.16;100.00
48882;BME280;57063;51.406;-2.402;2023-03-15T18:41:49;100059.66;;;6.12;100.00
48882;BME280;57063;51.406;-2.402;2023-03-15T18:44:14;100062.22;;;6.12;100.00
48882;BME280;57063;51.406;-2.402;2023-03-15T18:46:39;100060.50;;;6.13;100.00
48882;BME280;57063;51.406;-2.402;2023-03-15T18:49:07;100064.34;;;6.21;100.00
48882;BME280;57063;51.406;-2.402;2023-03-15T18:51:33;100061.47;;;6.10;100.00
48882;BME280;57063;51.406;-2.402;2023-03-15T18:53:58;100075.09;;;6.11;100.00
48882;BME280;57063;51.406;-2.402;2023-03-15T18:56:25;100067.41;;;6.11;100.00
48882;BME280;57063;51.406;-2.402;2023-03-15T18:58:52;100058.69;;;6.15;100.00
48882;BME280;57063;51.406;-2.402;2023-03-15T19:01:19;100065.63;;;6.13;100.00
48882;BME280;57063;51.406;-2.402;2023-03-15T19:03:46;100059.94;;;6.06;100.00
48882;BME280;57063;51.406;-2.402;2023-03-15T19:06:11;100057.31;;;6.08;100.00
48882;BME280;57063;51.406;-2.402;2023-03-15T19:08:37;100057.31;;;6.08;100.00
48882;BME280;57063;51.406;-2.402;2023-03-15T19:11:03;100048.72;;;6.09;100.00
48882;BME280;57063;51.406;-2.402;2023-03-15T19:13:29;100042.69;;;6.10;100.00
48882;BME280;57063;51.406;-2.402;2023-03-15T19:15:54;100043.44;;;6.12;100.00
48882;BME280;57063;51.406;-2.402;2023-03-15T19:18:20;100040.25;;;6.07;100.00
48882;BME280;57063;51.406;-2.402;2023-03-15T19:20:46;100047.81;;;6.10;100.00
48882;BME280;57063;51.406;-2.402;2023-03-15T19:23:11;100037.28;;;6.16;100.00
48882;BME280;57063;51.406;-2.402;2023-03-15T19:25:36;100027.19;;;6.13;100.00
48882;BME280;57063;51.406;-2.402;2023-03-15T19:28:02;100018.78;;;6.09;100.00
48882;BME280;57063;51.406;-2.402;2023-03-15T19:30:27;100021.97;;;6.14;100.00
48882;BME280;57063;51.406;-2.402;2023-03-15T19:32:53;100014.06;;;6.19;100.00
48882;BME280;57063;51.406;-2.402;2023-03-15T19:35:19;100005.66;;;6.17;100.00
48882;BME280;57063;51.406;-2.402;2023-03-15T19:37:45;100011.66;;;6.16;100.00
48882;BME280;57063;51.406;-2.402;2023-03-15T19:40:11;100009.81;;;6.19;100.00
48882;BME280;57063;51.406;-2.402;2023-03-15T19:42:37;100011.31;;;6.24;100.00
48882;BME280;57063;51.406;-2.402;2023-03-15T19:45:02;100003.56;;;6.25;100.00
48882;BME280;57063;51.406;-2.402;2023-03-15T19:47:29;100007.00;;;6.24;100.00
48882;BME280;57063;51.406;-2.402;2023-03-15T19:49:54;99996.75;;;6.24;100.00
48882;BME280;57063;51.406;-2.402;2023-03-15T19:52:20;99994.84;;;6.29;100.00
48882;BME280;57063;51.406;-2.402;2023-03-15T19:54:45;99984.69;;;6.26;100.00
48882;BME280;57063;51.406;-2.402;2023-03-15T19:57:11;99987.88;;;6.31;100.00
48882;BME280;57063;51.406;-2.402;2023-03-15T19:59:37;99985.09;;;6.36;100.00
48882;BME280;57063;51.406;-2.402;2023-03-15T20:02:08;99983.16;;;6.41;100.00
48882;BME280;57063;51.406;-2.402;2023-03-15T20:04:34;99990.84;;;6.41;100.00
48882;BME280;57063;51.406;-2.402;2023-03-15T20:07:00;99983.84;;;6.45;100.00
48882;BME280;57063;51.406;-2.402;2023-03-15T20:09:25;99985.38;;;6.49;100.00
48882;BME280;57063;51.406;-2.402;2023-03-15T20:11:51;99987.03;;;6.50;100.00
48882;BME280;57063;51.406;-2.402;2023-03-15T20:14:17;99976.59;;;6.53;100.00
48882;BME280;57063;51.406;-2.402;2023-03-15T20:16:44;99976.59;;;6.53;100.00
48882;BME280;57063;51.406;-2.402;2023-03-15T20:19:10;99969.69;;;6.55;100.00
48882;BME280;57063;51.406;-2.402;2023-03-15T20:21:35;99965.69;;;6.49;100.00
48882;BME280;57063;51.406;-2.402;2023-03-15T20:24:02;99968.91;;;6.53;100.00
48882;BME280;57063;51.406;-2.402;2023-03-15T20:26:28;99968.09;;;6.52;100.00
48882;BME280;57063;51.406;-2.402;2023-03-15T20:28:55;99958.88;;;6.48;100.00
48882;BME280;57063;51.406;-2.402;2023-03-15T20:31:21;99962.75;;;6.57;100.00
48882;BME280;57063;51.406;-2.402;2023-03-15T20:33:48;99960.19;;;6.57;100.00
48882;BME280;57063;51.406;-2.402;2023-03-15T20:36:14;99945.69;;;6.56;100.00
48882;BME280;57063;51.406;-2.402;2023-03-15T20:38:40;99948.72;;;6.64;100.00
48882;BME280;57063;51.406;-2.402;2023-03-15T20:41:05;99945.41;;;6.62;100.00
48882;BME280;57063;51.406;-2.402;2023-03-15T20:43:31;99949.53;;;6.64;100.00
48882;BME280;57063;51.406;-2.402;2023-03-15T20:45:58;99948.28;;;6.73;100.00
48882;BME280;57063;51.406;-2.402;2023-03-15T20:48:28;99948.41;;;6.70;100.00
48882;BME280;57063;51.406;-2.402;2023-03-15T20:50:55;99942.84;;;6.62;100.00
48882;BME280;57063;51.406;-2.402;2023-03-15T20:53:22;99943.75;;;6.61;100.00
48882;BME280;57063;51.406;-2.402;2023-03-15T20:55:48;99943.59;;;6.64;100.00
48882;BME280;57063;51.406;-2.402;2023-03-15T20:58:13;99943.28;;;6.70;100.00
48882;BME280;57063;51.406;-2.402;2023-03-15T21:00:39;99948.56;;;6.67;100.00
48882;BME280;57063;51.406;-2.402;2023-03-15T21:03:09;99944.13;;;6.71;100.00
48882;BME280;57063;51.406;-2.402;2023-03-15T21:05:35;99940.66;;;6.72;100.00
48882;BME280;57063;51.406;-2.402;2023-03-15T21:08:01;99931.97;;;6.74;100.00
48882;BME280;57063;51.406;-2.402;2023-03-15T21:10:26;99925.91;;;6.75;100.00
48882;BME280;57063;51.406;-2.402;2023-03-15T21:12:51;99932.72;;;6.76;100.00
48882;BME280;57063;51.406;-2.402;2023-03-15T21:15:16;99927.59;;;6.76;100.00
48882;BME280;57063;51.406;-2.402;2023-03-15T21:17:46;99932.13;;;6.71;100.00
48882;BME280;57063;51.406;-2.402;2023-03-15T21:20:13;99932.03;;;6.73;100.00
48882;BME280;57063;51.406;-2.402;2023-03-15T21:22:38;99922.63;;;6.73;100.00
48882;BME280;57063;51.406;-2.402;2023-03-15T21:25:04;99926.97;;;6.89;100.00
48882;BME280;57063;51.406;-2.402;2023-03-15T21:27:29;99922.00;;;6.85;100.00
48882;BME280;57063;51.406;-2.402;2023-03-15T21:29:56;99916.13;;;6.83;100.00
48882;BME280;57063;51.406;-2.402;2023-03-15T21:32:22;99917.13;;;6.81;100.00
48882;BME280;57063;51.406;-2.402;2023-03-15T21:34:47;99911.06;;;6.82;100.00
48882;BME280;57063;51.406;-2.402;2023-03-15T21:37:13;99903.97;;;6.87;100.00
48882;BME280;57063;51.406;-2.402;2023-03-15T21:39:38;99890.31;;;6.86;100.00
48882;BME280;57063;51.406;-2.402;2023-03-15T21:42:03;99893.56;;;6.90;100.00
48882;BME280;57063;51.406;-2.402;2023-03-15T21:44:29;99891.59;;;6.95;100.00
48882;BME280;57063;51.406;-2.402;2023-03-15T21:46:57;99889.03;;;6.95;100.00
48882;BME280;57063;51.406;-2.402;2023-03-15T21:49:23;99883.78;;;6.97;100.00
48882;BME280;57063;51.406;-2.402;2023-03-15T21:51:48;99881.34;;;6.95;100.00
48882;BME280;57063;51.406;-2.402;2023-03-15T21:54:14;99884.78;;;6.94;100.00
48882;BME280;57063;51.406;-2.402;2023-03-15T21:56:39;99888.03;;;6.98;100.00
48882;BME280;57063;51.406;-2.402;2023-03-15T21:59:05;99886.94;;;7.02;100.00
48882;BME280;57063;51.406;-2.402;2023-03-15T22:01:30;99890.28;;;7.04;100.00
48882;BME280;57063;51.406;-2.402;2023-03-15T22:03:55;99877.53;;;7.02;100.00
48882;BME280;57063;51.406;-2.402;2023-03-15T22:06:21;99870.72;;;7.01;100.00
48882;BME280;57063;51.406;-2.402;2023-03-15T22:08:49;99856.75;;;7.07;100.00
48882;BME280;57063;51.406;-2.402;2023-03-15T22:11:15;99861.66;;;7.12;100.00
48882;BME280;57063;51.406;-2.402;2023-03-15T22:13:40;99864.72;;;7.18;100.00
48882;BME280;57063;51.406;-2.402;2023-03-15T22:16:09;99861.34;;;7.18;100.00
48882;BME280;57063;51.406;-2.402;2023-03-15T22:18:35;99856.22;;;7.18;100.00
48882;BME280;57063;51.406;-2.402;2023-03-15T22:21:00;99855.38;;;7.17;100.00
48882;BME280;57063;51.406;-2.402;2023-03-15T22:23:26;99855.22;;;7.20;100.00
48882;BME280;57063;51.406;-2.402;2023-03-15T22:25:51;99853.22;;;7.25;100.00
48882;BME280;57063;51.406;-2.402;2023-03-15T22:28:20;99846.44;;;7.24;100.00
48882;BME280;57063;51.406;-2.402;2023-03-15T22:30:47;99850.34;;;7.32;100.00
48882;BME280;57063;51.406;-2.402;2023-03-15T22:33:13;99850.25;;;7.33;100.00
48882;BME280;57063;51.406;-2.402;2023-03-15T22:35:38;99848.25;;;7.38;100.00
48882;BME280;57063;51.406;-2.402;2023-03-15T22:38:03;99841.47;;;7.37;100.00
48882;BME280;57063;51.406;-2.402;2023-03-15T22:40:34;99842.47;;;7.35;100.00
48882;BME280;57063;51.406;-2.402;2023-03-15T22:42:59;99832.84;;;7.38;100.00
48882;BME280;57063;51.406;-2.402;2023-03-15T22:45:25;99827.66;;;7.40;100.00
48882;BME280;57063;51.406;-2.402;2023-03-15T22:47:50;99831.53;;;7.47;100.00
48882;BME280;57063;51.406;-2.402;2023-03-15T22:50:15;99825.59;;;7.46;100.00
48882;BME280;57063;51.406;-2.402;2023-03-15T22:52:40;99816.78;;;7.50;100.00
48882;BME280;57063;51.406;-2.402;2023-03-15T22:55:06;99825.06;;;7.56;100.00
48882;BME280;57063;51.406;-2.402;2023-03-15T22:57:32;99820.44;;;7.62;100.00
48882;BME280;57063;51.406;-2.402;2023-03-15T22:59:57;99817.53;;;7.68;100.00
48882;BME280;57063;51.406;-2.402;2023-03-15T23:02:23;99826.56;;;7.76;100.00
48882;BME280;57063;51.406;-2.402;2023-03-15T23:04:49;99825.31;;;7.83;100.00
48882;BME280;57063;51.406;-2.402;2023-03-15T23:07:14;99818.88;;;7.90;100.00
48882;BME280;57063;51.406;-2.402;2023-03-15T23:09:39;99822.88;;;7.96;100.00
48882;BME280;57063;51.406;-2.402;2023-03-15T23:12:05;99821.50;;;8.04;100.00
48882;BME280;57063;51.406;-2.402;2023-03-15T23:14:30;99819.34;;;8.12;100.00
48882;BME280;57063;51.406;-2.402;2023-03-15T23:16:55;99818.22;;;8.17;100.00
48882;BME280;57063;51.406;-2.402;2023-03-15T23:19:20;99813.50;;;8.25;100.00
48882;BME280;57063;51.406;-2.402;2023-03-15T23:21:46;99803.03;;;8.28;100.00
48882;BME280;57063;51.406;-2.402;2023-03-15T23:24:11;99790.09;;;8.29;100.00
48882;BME280;57063;51.406;-2.402;2023-03-15T23:26:39;99789.09;;;8.32;100.00
48882;BME280;57063;51.406;-2.402;2023-03-15T23:29:05;99797.34;;;8.37;100.00
48882;BME280;57063;51.406;-2.402;2023-03-15T23:31:38;99796.19;;;8.43;100.00
48882;BME280;57063;51.406;-2.402;2023-03-15T23:34:03;99795.28;;;8.44;100.00
48882;BME280;57063;51.406;-2.402;2023-03-15T23:36:29;99785.56;;;8.49;100.00
48882;BME280;57063;51.406;-2.402;2023-03-15T23:38:55;99786.56;;;8.46;100.00
48882;BME280;57063;51.406;-2.402;2023-03-15T23:41:20;99784.88;;;8.45;100.00
48882;BME280;57063;51.406;-2.402;2023-03-15T23:43:45;99789.84;;;8.48;100.00
48882;BME280;57063;51.406;-2.402;2023-03-15T23:46:10;99782.13;;;8.48;100.00
48882;BME280;57063;51.406;-2.402;2023-03-15T23:48:38;99788.00;;;8.50;100.00
48882;BME280;57063;51.406;-2.402;2023-03-15T23:51:04;99794.84;;;8.51;100.00
48882;BME280;57063;51.406;-2.402;2023-03-15T23:53:30;99788.94;;;8.49;100.00
48882;BME280;57063;51.406;-2.402;2023-03-15T23:55:55;99776.28;;;8.46;100.00
48882;BME280;57063;51.406;-2.402;2023-03-15T23:58:20;99778.56;;;8.51;100.00
